Time;durP1;ratioP1;P1;durP2;ratioP2;P2;SDS_P1;SDS_P2;PMS_P1;PMS_P2;Temp;Humidity;BMP_temperature;BMP_pressure;BME280_temperature;BME280_humidity;BME280_pressure;Samples;Min_cycle;Max_cycle;Signal;HPM_P1;HPM_P2
2023/04/05 00:02:51;;;;;;;2.55;1.30;;;4.90;1.00;;;;;;20754740;28;20041;-42
2023/04/05 00:12:52;;;;;;;4.68;1.63;;;4.80;1.00;;;;;;20740444;28;20084;-43
2023/04/05 00:22:53;;;;;;;7.70;2.65;;;4.70;1.00;;;;;;20750856;28;24223;-43
2023/04/05 00:32:54;;;;;;;3.70;2.28;;;4.60;1.00;;;;;;20730517;28;20048;-43
2023/04/05 00:42:55;;;;;;;6.82;2.72;;;4.60;1.00;;;;;;20742326;28;20092;-43
2023/04/05 00:52:57;;;;;;;4.90;2.72;;;4.50;1.00;;;;;;20731922;28;20049;-42
2023/04/05 01:03:01;;;;;;;2.85;1.52;;;4.40;1.00;;;;;;20780965;28;20060;-43
2023/04/05 01:13:03;;;;;;;6.57;2.53;;;4.40;1.00;;;;;;20802935;28;20037;-42
2023/04/05 01:23:23;;;;;;;3.33;1.92;;;4.40;1.00;;;;;;20798498;28;20053;-43
2023/04/05 01:33:56;;;;;;;4.10;1.77;;;4.20;1.00;;;;;;20732089;28;20544;-42
2023/04/05 01:43:58;;;;;;;3.45;1.77;;;4.00;1.00;;;;;;20710369;28;20489;-43
2023/04/05 01:53:59;;;;;;;6.72;2.33;;;3.90;1.00;;;;;;20801819;28;20037;-42
2023/04/05 02:04:00;;;;;;;4.32;1.73;;;3.80;1.00;;;;;;20794810;28;20037;-42
2023/04/05 02:14:01;;;;;;;5.05;2.17;;;3.70;1.00;;;;;;20778764;28;20539;-43
2023/04/05 02:24:02;;;;;;;3.58;2.30;;;3.50;1.00;;;;;;20803514;28;20041;-42
2023/04/05 02:34:04;;;;;;;3.58;2.28;;;3.30;1.00;;;;;;20797839;28;20037;-42
2023/04/05 02:44:05;;;;;;;6.47;3.05;;;3.20;1.00;;;;;;20799644;28;20155;-43
2023/04/05 02:54:06;;;;;;;7.47;3.67;;;3.00;1.00;;;;;;20748129;28;21002;-43
2023/04/05 03:04:07;;;;;;;5.55;3.30;;;2.90;1.00;;;;;;20740196;28;20041;-42
2023/04/05 03:14:10;;;;;;;3.85;1.85;;;2.90;1.00;;;;;;20765016;28;20041;-43
2023/04/05 03:24:11;;;;;;;3.30;1.65;;;2.80;1.00;;;;;;20712613;28;20077;-43
2023/04/05 03:34:13;;;;;;;5.65;2.55;;;2.80;1.00;;;;;;20708269;28;20108;-42
2023/04/05 03:44:14;;;;;;;9.23;2.75;;;2.80;1.00;;;;;;20722507;28;20042;-43
2023/04/05 03:54:15;;;;;;;2.80;2.13;;;2.70;1.00;;;;;;20717821;28;20805;-43
2023/04/05 04:04:16;;;;;;;4.82;2.35;;;2.60;1.00;;;;;;20729616;28;20046;-43
2023/04/05 04:14:17;;;;;;;2.38;1.63;;;2.60;1.00;;;;;;20686761;28;20034;-43
2023/04/05 04:24:18;;;;;;;6.30;2.63;;;2.60;1.00;;;;;;20734894;28;20158;-43
2023/04/05 04:34:19;;;;;;;4.30;2.72;;;2.60;1.00;;;;;;20742763;28;20038;-43
2023/04/05 04:44:27;;;;;;;4.40;2.33;;;2.60;1.00;;;;;;20746792;28;20648;-43
2023/04/05 04:54:28;;;;;;;;;;;2.60;1.00;;;;;;20807566;28;20037;-43
2023/04/05 05:04:29;;;;;;;3.60;1.70;;;2.50;1.00;;;;;;20739435;28;19932;-43
2023/04/05 05:14:31;;;;;;;5.85;3.28;;;2.50;1.00;;;;;;20752653;28;20033;-43
2023/04/05 05:24:32;;;;;;;6.25;2.95;;;2.40;1.00;;;;;;20793905;28;20041;-43
2023/04/05 05:34:33;;;;;;;5.03;2.50;;;2.30;1.00;;;;;;20794167;28;20428;-43
2023/04/05 05:44:34;;;;;;;5.80;2.58;;;2.20;1.00;;;;;;20744794;28;20611;-43
2023/04/05 05:54:35;;;;;;;10.23;4.60;;;2.10;1.00;;;;;;20729751;28;20835;-43
2023/04/05 06:04:36;;;;;;;5.72;3.28;;;2.10;1.00;;;;;;20788950;28;20061;-43
2023/04/05 06:14:37;;;;;;;6.95;2.88;;;2.20;1.00;;;;;;20807397;28;20037;-43
2023/04/05 06:24:38;;;;;;;7.03;2.90;;;2.40;1.00;;;;;;20745155;28;20494;-43
2023/04/05 06:34:39;;;;;;;5.18;2.67;;;2.60;1.00;;;;;;20751669;28;20409;-43
2023/04/05 06:44:40;;;;;;;4.82;2.55;;;2.80;1.00;;;;;;20790814;28;20045;-43
2023/04/05 06:54:42;;;;;;;6.75;3.55;;;3.10;1.00;;;;;;20739936;28;20033;-43
2023/04/05 07:04:43;;;;;;;11.10;3.85;;;3.50;1.00;;;;;;20734328;28;20045;-43
2023/04/05 07:14:44;;;;;;;4.40;2.03;;;3.90;1.00;;;;;;20703131;28;20498;-43
2023/04/05 07:24:45;;;;;;;7.10;3.58;;;4.40;1.00;;;;;;20714463;28;20420;-43
2023/04/05 07:34:46;;;;;;;8.73;3.03;;;4.90;1.00;;;;;;20732044;28;20033;-43
2023/04/05 07:44:47;;;;;;;6.78;2.72;;;5.40;1.00;;;;;;20737747;28;20068;-43
2023/04/05 07:54:48;;;;;;;4.47;1.60;;;6.00;1.00;;;;;;20729522;28;20490;-43
2023/04/05 08:04:50;;;;;;;5.75;2.67;;;6.60;1.00;;;;;;20720571;28;20312;-43
2023/04/05 08:14:51;;;;;;;3.25;1.83;;;7.10;1.00;;;;;;20703109;28;20140;-43
2023/04/05 08:24:52;;;;;;;2.75;1.55;;;7.40;1.00;;;;;;20719007;28;20469;-43
2023/04/05 08:34:53;;;;;;;4.28;2.53;;;7.90;1.00;;;;;;20734840;28;20386;-43
2023/04/05 08:44:56;;;;;;;3.72;1.60;;;8.30;1.00;;;;;;20744445;28;20050;-43
2023/04/05 08:54:57;;;;;;;5.40;2.13;;;8.60;1.00;;;;;;20771074;28;20492;-43
2023/04/05 09:04:59;;;;;;;4.13;1.13;;;9.00;1.00;;;;;;20822912;28;20390;-44
2023/04/05 09:15:00;;;;;;;2.90;1.58;;;9.50;1.00;;;;;;20805728;28;20048;-44
2023/04/05 09:25:01;;;;;;;3.83;1.20;;;9.90;1.00;;;;;;20807314;28;20037;-43
2023/04/05 09:35:03;;;;;;;2.83;1.25;;;10.20;1.00;;;;;;20793851;28;20620;-44
2023/04/05 09:45:06;;;;;;;2.63;1.00;;;10.60;1.00;;;;;;20722211;28;20449;-44
2023/04/05 09:55:07;;;;;;;3.83;1.40;;;10.70;1.00;;;;;;20726817;28;20040;-43
2023/04/05 10:05:12;;;;;;;6.57;2.95;;;11.00;1.00;;;;;;20730746;28;20633;-44
2023/04/05 10:15:15;;;;;;;4.40;1.30;;;11.30;1.00;;;;;;20737338;28;20038;-44
2023/04/05 10:25:45;;;;;;;3.42;2.15;;;11.30;1.00;;;;;;20727068;28;21259;-44
2023/04/05 10:35:55;;;;;;;5.30;1.55;;;11.30;1.00;;;;;;20735604;28;20488;-43
2023/04/05 10:45:57;;;;;;;3.38;1.40;;;11.50;1.00;;;;;;20718279;28;20319;-44
2023/04/05 10:56:00;;;;;;;3.95;1.42;;;11.70;1.00;;;;;;20719749;28;20049;-43
2023/04/05 11:06:31;;;;;;;4.43;1.35;;;12.20;1.00;;;;;;20719787;28;20366;-44
2023/04/05 11:16:39;;;;;;;4.32;1.70;;;12.80;1.00;;;;;;20737143;28;20037;-44
2023/04/05 11:26:43;;;;;;;4.55;2.15;;;13.10;1.00;;;;;;20731210;28;20040;-41
2023/04/05 11:36:47;;;;;;;4.70;1.85;;;13.70;1.00;;;;;;20722939;28;20046;-41
2023/04/05 11:46:48;;;;;;;3.30;1.67;;;13.70;1.00;;;;;;20733043;28;20041;-44
2023/04/05 11:56:52;;;;;;;3.92;1.67;;;14.40;1.00;;;;;;20725883;28;20475;-42
2023/04/05 12:07:14;;;;;;;5.40;2.13;;;14.10;1.00;;;;;;20724054;28;20421;-42
2023/04/05 12:17:15;;;;;;;4.65;1.98;;;15.00;1.00;;;;;;20722576;28;20120;-42
2023/04/05 12:27:16;;;;;;;4.50;2.20;;;14.40;1.00;;;;;;20716730;28;20045;-42
2023/04/05 12:37:18;;;;;;;3.85;1.58;;;14.50;1.00;;;;;;20723917;28;20042;-42
2023/04/05 12:47:20;;;;;;;4.05;1.80;;;14.80;1.00;;;;;;20727355;28;20441;-42
2023/04/05 12:57:31;;;;;;;5.38;2.35;;;15.30;1.00;;;;;;20739814;28;20133;-42
2023/04/05 13:07:32;;;;;;;5.50;2.08;;;15.30;1.00;;;;;;20726186;28;20521;-42
2023/04/05 13:17:33;;;;;;;5.03;2.03;;;15.30;1.00;;;;;;20730306;28;20060;-42
2023/04/05 13:27:34;;;;;;;2.83;1.65;;;15.70;1.00;;;;;;20736322;28;20056;-42
2023/04/05 13:37:35;;;;;;;4.38;2.35;;;15.70;1.00;;;;;;20739024;28;22324;-40
2023/04/05 13:47:36;;;;;;;3.10;1.63;;;16.20;1.00;;;;;;20734206;28;20041;-41
2023/04/05 13:57:37;;;;;;;4.97;2.60;;;16.80;1.00;;;;;;20740159;28;20576;-41
2023/04/05 14:07:39;;;;;;;3.65;1.67;;;17.00;1.00;;;;;;20731336;28;20485;-40
2023/04/05 14:17:40;;;;;;;3.35;1.95;;;16.80;1.00;;;;;;20738379;28;20036;-40
2023/04/05 14:27:41;;;;;;;5.03;1.83;;;15.40;1.00;;;;;;20732098;28;20201;-42
2023/04/05 14:37:42;;;;;;;4.53;1.83;;;14.70;1.00;;;;;;20721098;28;20045;-42
2023/04/05 14:47:43;;;;;;;3.85;1.70;;;14.40;1.00;;;;;;20722782;28;20053;-42
2023/04/05 14:57:44;;;;;;;5.72;2.72;;;13.90;1.00;;;;;;20776595;28;20052;-42
2023/04/05 15:07:45;;;;;;;5.28;2.25;;;13.80;1.00;;;;;;20783376;28;20045;-42
2023/04/05 15:17:46;;;;;;;5.10;2.72;;;13.70;1.00;;;;;;20775107;28;20041;-42
2023/04/05 15:27:47;;;;;;;5.72;1.90;;;13.50;1.00;;;;;;20730509;28;20041;-42
2023/04/05 15:37:48;;;;;;;3.97;1.95;;;13.10;1.00;;;;;;20718780;28;20141;-42
2023/04/05 15:47:50;;;;;;;3.15;1.30;;;13.20;1.00;;;;;;20724475;28;20041;-42
2023/04/05 15:57:53;;;;;;;3.50;1.55;;;12.90;1.00;;;;;;20711170;28;20037;-41
2023/04/05 16:07:54;;;;;;;2.80;1.20;;;13.10;1.00;;;;;;20796843;28;20052;-42
2023/04/05 16:17:57;;;;;;;4.40;1.75;;;12.70;1.00;;;;;;20794046;28;20417;-41
2023/04/05 16:27:58;;;;;;;6.15;2.47;;;12.50;1.00;;;;;;20811821;28;20201;-42
2023/04/05 16:37:59;;;;;;;6.95;1.75;;;12.10;1.00;;;;;;20792020;28;20044;-42
2023/04/05 16:48:01;;;;;;;4.38;2.13;;;11.90;1.00;;;;;;20728483;28;20042;-41
2023/04/05 16:58:02;;;;;;;3.28;1.73;;;11.80;1.00;;;;;;20784254;28;20489;-41
2023/04/05 17:08:03;;;;;;;4.60;1.70;;;11.60;1.00;;;;;;20752225;28;20042;-41
2023/04/05 17:18:05;;;;;;;3.20;2.05;;;11.60;1.00;;;;;;20728106;28;20703;-41
2023/04/05 17:28:06;;;;;;;4.15;2.30;;;11.50;1.00;;;;;;20723815;28;20041;-42
2023/04/05 17:38:09;;;;;;;3.50;2.13;;;11.30;1.00;;;;;;20731705;28;20069;-42
2023/04/05 17:48:10;;;;;;;4.78;1.92;;;11.20;1.00;;;;;;20754297;28;20041;-42
2023/04/05 17:58:11;;;;;;;4.43;2.55;;;10.90;1.00;;;;;;20816352;28;20620;-41
2023/04/05 18:08:12;;;;;;;4.82;2.42;;;10.70;1.00;;;;;;20734139;28;20049;-42
2023/04/05 18:18:13;;;;;;;8.13;2.55;;;10.40;1.00;;;;;;20728747;28;20968;-41
2023/04/05 18:28:14;;;;;;;12.80;2.95;;;10.10;1.00;;;;;;20738861;28;20436;-42
2023/04/05 18:38:16;;;;;;;4.45;2.33;;;9.80;1.00;;;;;;20726459;28;20033;-42
2023/04/05 18:48:18;;;;;;;7.55;2.90;;;9.60;1.00;;;;;;20709835;28;20050;-42
2023/04/05 18:58:19;;;;;;;7.72;3.60;;;9.40;1.00;;;;;;20719056;28;20422;-42
2023/04/05 19:08:20;;;;;;;6.43;3.53;;;8.90;1.00;;;;;;20729217;28;20965;-42
2023/04/05 19:18:24;;;;;;;10.18;5.80;;;8.70;1.00;;;;;;20732308;28;20425;-42
2023/04/05 19:28:26;;;;;;;11.20;5.65;;;8.50;1.00;;;;;;20807584;28;20052;-42
2023/04/05 19:38:27;;;;;;;14.10;6.05;;;8.40;1.00;;;;;;20805248;28;20037;-42
2023/04/05 19:48:37;;;;;;;16.35;7.85;;;8.30;1.00;;;;;;20809573;28;20068;-42
2023/04/05 19:58:38;;;;;;;9.52;4.90;;;8.00;1.00;;;;;;20783849;28;20395;-42
2023/04/05 20:08:41;;;;;;;13.32;7.10;;;7.90;1.00;;;;;;20809412;28;20543;-42
2023/04/05 20:18:46;;;;;;;14.85;6.40;;;7.70;1.00;;;;;;20808432;28;20049;-42
2023/04/05 20:28:55;;;;;;;17.60;5.95;;;7.50;1.00;;;;;;20816390;28;20041;-42
2023/04/05 20:38:56;;;;;;;11.40;7.55;;;7.30;1.00;;;;;;20811770;28;20053;-42
2023/04/05 20:48:57;;;;;;;13.07;6.82;;;7.00;1.00;;;;;;20815519;28;20042;-42
2023/04/05 20:58:58;;;;;;;13.07;8.52;;;7.00;1.00;;;;;;20795126;28;20044;-42
2023/04/05 21:08:59;;;;;;;11.82;7.28;;;6.80;1.00;;;;;;20814175;28;20043;-42
2023/04/05 21:19:00;;;;;;;14.20;7.30;;;6.70;1.00;;;;;;20836767;28;20964;-42
2023/04/05 21:29:01;;;;;;;16.88;8.05;;;6.70;1.00;;;;;;20802307;28;20401;-42
2023/04/05 21:39:03;;;;;;;16.50;8.93;;;6.50;1.00;;;;;;20812614;28;20048;-43
2023/04/05 21:49:04;;;;;;;11.68;8.30;;;6.30;1.00;;;;;;20813195;28;20041;-42
2023/04/05 21:59:05;;;;;;;12.65;8.73;;;6.20;1.00;;;;;;20804525;28;20034;-42
2023/04/05 22:09:06;;;;;;;15.98;8.45;;;6.00;1.00;;;;;;20813679;28;20055;-42
2023/04/05 22:19:10;;;;;;;11.73;7.35;;;5.90;1.00;;;;;;20755281;28;20037;-42
2023/04/05 22:29:11;;;;;;;11.55;7.57;;;5.80;1.00;;;;;;20722609;28;20077;-42
2023/04/05 22:39:12;;;;;;;11.13;6.25;;;5.90;1.00;;;;;;20724398;28;20061;-42
2023/04/05 22:49:13;;;;;;;13.38;5.40;;;6.10;1.00;;;;;;20726004;28;20049;-42
2023/04/05 22:59:14;;;;;;;8.25;4.22;;;6.00;1.00;;;;;;20719759;28;20041;-42
2023/04/05 23:09:15;;;;;;;6.50;3.97;;;5.90;1.00;;;;;;20784715;28;20102;-42
2023/04/05 23:19:16;;;;;;;5.57;3.53;;;6.00;1.00;;;;;;20803308;28;20103;-42
2023/04/05 23:29:18;;;;;;;5.50;3.10;;;6.20;1.00;;;;;;20807298;28;20044;-42
2023/04/05 23:39:19;;;;;;;9.85;4.25;;;6.30;1.00;;;;;;20801733;28;20049;-42
2023/04/05 23:49:20;;;;;;;6.43;3.53;;;6.40;1.00;;;;;;20739035;28;20042;-42
2023/04/05 23:59:21;;;;;;;6.70;3.58;;;6.40;1.00;;;;;;20724160;28;20524;-42
